sensor_id;sensor_type;location;lat;lon;timestamp;pressure;altitude;pressure_sealevel;temperature;humidity
22582;BME280;47125;48.542;9.052;2023-05-01T00:00:21;95954.41;;;13.75;58.11
22582;BME280;47125;48.542;9.052;2023-05-01T00:10:24;95939.28;;;13.64;58.34
22582;BME280;47125;48.542;9.052;2023-05-01T00:20:28;95930.66;;;13.57;59.16
22582;BME280;47125;48.542;9.052;2023-05-01T00:30:31;95919.41;;;13.60;59.27
22582;BME280;47125;48.542;9.052;2023-05-01T00:40:41;95910.03;;;13.62;60.39
22582;BME280;47125;48.542;9.052;2023-05-01T00:50:44;95907.97;;;13.69;58.99
22582;BME280;47125;48.542;9.052;2023-05-01T01:00:48;95892.16;;;13.78;59.14
22582;BME280;47125;48.542;9.052;2023-05-01T01:10:52;95884.25;;;13.61;59.49
22582;BME280;47125;48.542;9.052;2023-05-01T01:20:57;95860.06;;;13.51;58.96
22582;BME280;47125;48.542;9.052;2023-05-01T01:31:10;95860.94;;;13.67;59.13
22582;BME280;47125;48.542;9.052;2023-05-01T01:41:18;95857.22;;;13.68;59.49
22582;BME280;47125;48.542;9.052;2023-05-01T01:51:22;95857.47;;;13.66;59.90
22582;BME280;47125;48.542;9.052;2023-05-01T02:01:28;95846.16;;;13.59;59.41
22582;BME280;47125;48.542;9.052;2023-05-01T02:11:31;95837.06;;;13.60;59.97
22582;BME280;47125;48.542;9.052;2023-05-01T02:21:35;95825.97;;;13.47;61.23
22582;BME280;47125;48.542;9.052;2023-05-01T02:31:38;95824.63;;;13.49;61.85
22582;BME280;47125;48.542;9.052;2023-05-01T02:41:42;95823.47;;;13.35;61.38
22582;BME280;47125;48.542;9.052;2023-05-01T02:51:46;95825.13;;;13.41;61.94
22582;BME280;47125;48.542;9.052;2023-05-01T03:01:51;95816.53;;;13.39;63.05
22582;BME280;47125;48.542;9.052;2023-05-01T03:11:53;95810.91;;;13.41;61.93
22582;BME280;47125;48.542;9.052;2023-05-01T03:21:57;95791.88;;;13.42;61.88
22582;BME280;47125;48.542;9.052;2023-05-01T03:32:00;95794.19;;;13.29;61.88
22582;BME280;47125;48.542;9.052;2023-05-01T03:42:04;95795.84;;;13.35;61.86
22582;BME280;47125;48.542;9.052;2023-05-01T03:52:06;95789.97;;;13.38;62.13
22582;BME280;47125;48.542;9.052;2023-05-01T04:02:10;95795.53;;;13.31;65.48
22582;BME280;47125;48.542;9.052;2023-05-01T04:12:12;95796.84;;;13.23;66.58
22582;BME280;47125;48.542;9.052;2023-05-01T04:22:16;95791.16;;;13.15;68.73
22582;BME280;47125;48.542;9.052;2023-05-01T04:32:19;95785.44;;;13.06;71.59
22582;BME280;47125;48.542;9.052;2023-05-01T04:42:28;95794.88;;;13.09;72.19
22582;BME280;47125;48.542;9.052;2023-05-01T04:52:30;95799.97;;;13.10;70.96
22582;BME280;47125;48.542;9.052;2023-05-01T05:02:34;95797.47;;;13.04;72.11
22582;BME280;47125;48.542;9.052;2023-05-01T05:12:37;95805.44;;;12.89;70.81
22582;BME280;47125;48.542;9.052;2023-05-01T05:22:41;95810.50;;;12.90;73.45
22582;BME280;47125;48.542;9.052;2023-05-01T05:32:43;95810.00;;;12.93;72.87
22582;BME280;47125;48.542;9.052;2023-05-01T05:42:48;95810.34;;;13.02;74.21
22582;BME280;47125;48.542;9.052;2023-05-01T05:52:51;95807.66;;;13.02;72.94
22582;BME280;47125;48.542;9.052;2023-05-01T06:02:54;95800.44;;;13.07;69.30
22582;BME280;47125;48.542;9.052;2023-05-01T06:12:57;95807.59;;;12.92;76.47
22582;BME280;47125;48.542;9.052;2023-05-01T06:23:15;95813.47;;;12.89;77.18
22582;BME280;47125;48.542;9.052;2023-05-01T06:33:19;95811.06;;;12.92;77.18
22582;BME280;47125;48.542;9.052;2023-05-01T06:43:23;95817.16;;;13.14;74.02
22582;BME280;47125;48.542;9.052;2023-05-01T06:53:28;95825.97;;;13.10;73.52
22582;BME280;47125;48.542;9.052;2023-05-01T07:03:32;95822.97;;;13.06;74.07
22582;BME280;47125;48.542;9.052;2023-05-01T07:13:34;95825.63;;;13.33;72.64
22582;BME280;47125;48.542;9.052;2023-05-01T07:23:39;95821.00;;;13.29;74.41
22582;BME280;47125;48.542;9.052;2023-05-01T07:33:41;95818.13;;;13.40;72.99
22582;BME280;47125;48.542;9.052;2023-05-01T07:43:45;95821.91;;;13.07;74.41
22582;BME280;47125;48.542;9.052;2023-05-01T07:53:47;95816.53;;;13.07;74.69
22582;BME280;47125;48.542;9.052;2023-05-01T08:03:51;95820.44;;;13.21;75.75
22582;BME280;47125;48.542;9.052;2023-05-01T08:13:54;95826.19;;;13.40;76.72
22582;BME280;47125;48.542;9.052;2023-05-01T08:23:57;95821.75;;;13.61;74.67
22582;BME280;47125;48.542;9.052;2023-05-01T08:34:00;95821.28;;;13.74;73.72
22582;BME280;47125;48.542;9.052;2023-05-01T08:44:06;95824.09;;;13.99;71.13
22582;BME280;47125;48.542;9.052;2023-05-01T08:54:09;95830.06;;;14.11;72.61
22582;BME280;47125;48.542;9.052;2023-05-01T09:04:14;95831.25;;;14.36;74.12
22582;BME280;47125;48.542;9.052;2023-05-01T09:14:17;95834.16;;;14.34;73.48
22582;BME280;47125;48.542;9.052;2023-05-01T09:24:22;95828.31;;;14.47;72.35
22582;BME280;47125;48.542;9.052;2023-05-01T09:34:25;95825.69;;;14.98;70.42
22582;BME280;47125;48.542;9.052;2023-05-01T09:44:28;95832.69;;;14.99;69.89
22582;BME280;47125;48.542;9.052;2023-05-01T09:54:31;95816.81;;;15.22;70.67
22582;BME280;47125;48.542;9.052;2023-05-01T10:04:35;95821.88;;;15.64;67.99
22582;BME280;47125;48.542;9.052;2023-05-01T10:14:48;95821.22;;;16.03;66.35
22582;BME280;47125;48.542;9.052;2023-05-01T10:24:52;95818.44;;;16.23;65.27
22582;BME280;47125;48.542;9.052;2023-05-01T10:34:56;95820.97;;;16.04;65.73
22582;BME280;47125;48.542;9.052;2023-05-01T10:55:34;95828.03;;;15.75;67.42
22582;BME280;47125;48.542;9.052;2023-05-01T11:26:23;95813.88;;;16.18;67.32
22582;BME280;47125;48.542;9.052;2023-05-01T11:36:25;95814.28;;;16.45;64.41
22582;BME280;47125;48.542;9.052;2023-05-01T11:46:30;95807.09;;;16.31;64.36
22582;BME280;47125;48.542;9.052;2023-05-01T11:56:34;95802.09;;;16.53;63.35
22582;BME280;47125;48.542;9.052;2023-05-01T12:06:38;95802.59;;;16.65;61.52
22582;BME280;47125;48.542;9.052;2023-05-01T12:16:44;95787.69;;;17.12;58.67
22582;BME280;47125;48.542;9.052;2023-05-01T12:26:48;95777.00;;;17.83;56.84
22582;BME280;47125;48.542;9.052;2023-05-01T12:37:00;95785.59;;;18.32;54.00
22582;BME280;47125;48.542;9.052;2023-05-01T12:47:07;95775.03;;;18.31;52.20
22582;BME280;47125;48.542;9.052;2023-05-01T12:57:10;95768.41;;;18.98;50.38
22582;BME280;47125;48.542;9.052;2023-05-01T13:07:16;95757.13;;;18.91;49.63
22582;BME280;47125;48.542;9.052;2023-05-01T13:17:23;95744.63;;;18.39;50.01
22582;BME280;47125;48.542;9.052;2023-05-01T13:27:27;95769.03;;;18.15;50.56
22582;BME280;47125;48.542;9.052;2023-05-01T13:37:30;95781.28;;;17.02;58.43
22582;BME280;47125;48.542;9.052;2023-05-01T13:47:34;95822.06;;;16.57;68.24
22582;BME280;47125;48.542;9.052;2023-05-01T13:57:40;95789.28;;;15.76;70.31
22582;BME280;47125;48.542;9.052;2023-05-01T14:07:47;95782.13;;;16.10;74.80
22582;BME280;47125;48.542;9.052;2023-05-01T14:17:52;95760.94;;;16.42;74.21
22582;BME280;47125;48.542;9.052;2023-05-01T14:27:56;95785.38;;;16.07;73.92
22582;BME280;47125;48.542;9.052;2023-05-01T14:38:03;95817.28;;;15.80;72.82
22582;BME280;47125;48.542;9.052;2023-05-01T14:48:10;95850.94;;;15.67;76.39
22582;BME280;47125;48.542;9.052;2023-05-01T14:58:14;95853.09;;;15.30;76.74
22582;BME280;47125;48.542;9.052;2023-05-01T15:08:18;95842.34;;;15.25;79.85
22582;BME280;47125;48.542;9.052;2023-05-01T15:18:20;95826.47;;;14.93;79.96
22582;BME280;47125;48.542;9.052;2023-05-01T15:28:24;95826.47;;;15.08;78.78
22582;BME280;47125;48.542;9.052;2023-05-01T15:38:27;95834.56;;;15.03;79.69
22582;BME280;47125;48.542;9.052;2023-05-01T15:48:31;95827.28;;;15.09;78.57
22582;BME280;47125;48.542;9.052;2023-05-01T15:58:34;95834.84;;;15.17;78.37
22582;BME280;47125;48.542;9.052;2023-05-01T16:08:38;95844.75;;;15.67;80.38
22582;BME280;47125;48.542;9.052;2023-05-01T16:18:40;95826.19;;;15.45;79.05
22582;BME280;47125;48.542;9.052;2023-05-01T16:28:44;95857.16;;;15.27;77.23
22582;BME280;47125;48.542;9.052;2023-05-01T16:38:46;95851.75;;;15.63;77.32
22582;BME280;47125;48.542;9.052;2023-05-01T16:48:50;95876.53;;;15.60;78.29
22582;BME280;47125;48.542;9.052;2023-05-01T16:58:53;95896.19;;;15.70;78.11
22582;BME280;47125;48.542;9.052;2023-05-01T17:08:57;95875.72;;;15.59;78.44
22582;BME280;47125;48.542;9.052;2023-05-01T17:18:59;95877.06;;;15.47;78.67
22582;BME280;47125;48.542;9.052;2023-05-01T17:29:07;95885.94;;;15.22;77.34
22582;BME280;47125;48.542;9.052;2023-05-01T17:39:09;95879.75;;;15.21;81.07
22582;BME280;47125;48.542;9.052;2023-05-01T17:49:13;95883.78;;;15.19;80.69
22582;BME280;47125;48.542;9.052;2023-05-01T17:59:16;95908.00;;;15.19;80.76
22582;BME280;47125;48.542;9.052;2023-05-01T18:19:25;95933.00;;;15.09;81.75
22582;BME280;47125;48.542;9.052;2023-05-01T18:29:27;95957.69;;;14.96;82.35
22582;BME280;47125;48.542;9.052;2023-05-01T18:39:31;95985.22;;;14.51;84.77
22582;BME280;47125;48.542;9.052;2023-05-01T18:49:34;95984.47;;;14.61;82.96
22582;BME280;47125;48.542;9.052;2023-05-01T18:59:37;95984.38;;;14.36;82.34
22582;BME280;47125;48.542;9.052;2023-05-01T19:09:40;95986.03;;;14.52;81.87
22582;BME280;47125;48.542;9.052;2023-05-01T19:19:44;95983.06;;;14.43;81.94
22582;BME280;47125;48.542;9.052;2023-05-01T19:29:46;95997.47;;;14.32;83.32
22582;BME280;47125;48.542;9.052;2023-05-01T19:39:51;95990.16;;;14.17;82.15
22582;BME280;47125;48.542;9.052;2023-05-01T19:49:54;96007.31;;;13.79;85.67
22582;BME280;47125;48.542;9.052;2023-05-01T19:59:58;96019.72;;;13.86;85.16
22582;BME280;47125;48.542;9.052;2023-05-01T20:10:00;96033.44;;;13.89;84.16
22582;BME280;47125;48.542;9.052;2023-05-01T20:20:05;96034.38;;;13.73;84.21
22582;BME280;47125;48.542;9.052;2023-05-01T20:30:08;96045.97;;;13.78;83.21
22582;BME280;47125;48.542;9.052;2023-05-01T20:40:14;96043.81;;;13.75;83.91
22582;BME280;47125;48.542;9.052;2023-05-01T20:50:17;96059.63;;;13.77;83.15
22582;BME280;47125;48.542;9.052;2023-05-01T21:00:21;96068.16;;;13.69;82.36
22582;BME280;47125;48.542;9.052;2023-05-01T21:10:23;96079.75;;;13.48;81.82
22582;BME280;47125;48.542;9.052;2023-05-01T21:20:29;96091.16;;;13.60;80.35
22582;BME280;47125;48.542;9.052;2023-05-01T21:30:33;96087.03;;;13.25;81.09
22582;BME280;47125;48.542;9.052;2023-05-01T21:40:39;96086.13;;;13.42;80.60
22582;BME280;47125;48.542;9.052;2023-05-01T21:50:41;96084.63;;;13.24;80.90
22582;BME280;47125;48.542;9.052;2023-05-01T22:00:45;96093.97;;;13.21;79.70
22582;BME280;47125;48.542;9.052;2023-05-01T22:10:48;96091.97;;;13.12;79.83
22582;BME280;47125;48.542;9.052;2023-05-01T22:20:51;96093.13;;;12.99;79.89
22582;BME280;47125;48.542;9.052;2023-05-01T22:30:54;96104.41;;;13.01;79.23
22582;BME280;47125;48.542;9.052;2023-05-01T22:40:58;96120.66;;;12.95;80.24
22582;BME280;47125;48.542;9.052;2023-05-01T22:51:00;96119.38;;;12.97;78.92
22582;BME280;47125;48.542;9.052;2023-05-01T23:01:04;96113.66;;;12.89;80.15
22582;BME280;47125;48.542;9.052;2023-05-01T23:11:08;96126.19;;;12.66;80.11
22582;BME280;47125;48.542;9.052;2023-05-01T23:21:12;96127.41;;;12.76;80.08
22582;BME280;47125;48.542;9.052;2023-05-01T23:31:19;96121.00;;;12.77;79.66
22582;BME280;47125;48.542;9.052;2023-05-01T23:41:23;96132.69;;;12.70;80.31
22582;BME280;47125;48.542;9.052;2023-05-01T23:51:26;96140.81;;;12.59;80.36
